Aeroporto :
LOGIN :

Iscrizione | Disclaimer

   EN    FR    IT 

 










Sommario :    VFR   VFR Marginale   IFR   IFR Intensivo   IFR Molto Intensivo
Visibilità : 
Base nubi : 
>= 8 km
>= 3000ft
5 / 8 km
1000 / 3000 ft
1500m / 5 km
500 / 1000 ft
800 / 1500m
200 / 500 ft
< 800m
< 200 ft
Simboli :   Temporali  Nebbia  Neve Forte  Precipitazioni Forti  Vento > 20 kt
SIGMETs :   Varie  Temporali  Ghiacco  Turbolenza  Onda orograficha  Ceneri Vulcaniche






- Altitudine del aeroporto : 436 ft
- Codice IATA : ANG


LFBU - Angoulême Brie Champniers

ULTIMO METAR :
  • 140600Z AUTO 14012KT 100V180 CAVOK 18/14 Q1007 TEMPO 16015G25KT

METARs OBSOLETI :
  • 140530Z AUTO 14011G22KT 090V180 CAVOK 18/14 Q1007 NOSIG
  • 140500Z AUTO 14013KT 100V180 CAVOK 18/14 Q1007
  • 140430Z AUTO 14012KT 090V180 CAVOK 18/15 Q1008
  • 140400Z AUTO 14012KT 080V180 CAVOK 18/14 Q1008
  • 140330Z AUTO 15014KT 100V180 CAVOK 18/15 Q1008

TAF TAF LFBU
Valido dal 14 a 06 ore il 15 a 06 ore UTC


140500Z 1406/1506 16012KT CAVOK
TEMPO 1406/1408 16015G25KT
PROB30
TEMPO 1408/1410 19015G30KT 4000 -SHRA FEW060CB BKN080TCU
TEMPO 1410/1414 18015G25KT
PROB40
TEMPO 1414/1418 22020G40KT 2000 TSRAGR SCT010 BKN020CB
BECMG 1416/1418 21010KT
TEMPO 1418/1422 BKN013
TEMPO 1500/1506 3000 SHRA SCT015CB BKN025TCU



MetMap, La meteo Aeronautica in un colpo d'occhio ! - Copyright ORBIFLY Dicembre 2007 - Disclaimer

ORBIFLY MET'MAP TEAM :

Programmazione e sviluppo : Alexandra Zaïnal
Concezione e sviluppo : Baudouin d'Aumeries
Co-Programmazione e sviluppo : Marc-Olivier Méhu
Supporto tecnico e logistico : Manuel Goepfert
Aiuto per la traduzione : Arnaldo La Scala

Contatto : metmap@orbifly.com




FONTI E CREDITI :

   NOAA